Time;durP1;ratioP1;P1;durP2;ratioP2;P2;SDS_P1;SDS_P2;PMS_P1;PMS_P2;Temp;Humidity;BMP_temperature;BMP_pressure;BME280_temperature;BME280_humidity;BME280_pressure;Samples;Min_cycle;Max_cycle;Signal;HPM_P1;HPM_P2
2023/07/03 00:00:16;;;;;;;1.10;1.10;;;16.80;99.90;;;;;;5133572;27;20438;-91
2023/07/03 00:02:43;;;;;;;1.20;1.20;;;16.80;99.90;;;;;;5139291;27;20086;-88
2023/07/03 00:05:10;;;;;;;1.10;1.10;;;16.90;99.90;;;;;;5147742;27;20065;-88
2023/07/03 00:07:36;;;;;;;1.30;1.30;;;16.80;99.90;;;;;;5140427;27;20050;-88
2023/07/03 00:10:04;;;;;;;1.10;1.10;;;16.80;99.90;;;;;;5161836;27;20050;-91
2023/07/03 00:12:30;;;;;;;1.20;1.20;;;16.80;99.90;;;;;;5133965;27;20456;-89
2023/07/03 00:14:56;;;;;;;1.20;1.20;;;16.80;99.90;;;;;;5133459;27;20137;-88
2023/07/03 00:17:22;;;;;;;1.30;1.30;;;16.80;99.90;;;;;;5127176;27;20138;-87
2023/07/03 00:19:48;;;;;;;1.30;1.30;;;16.80;99.90;;;;;;5151697;27;20088;-87
2023/07/03 00:22:13;;;;;;;1.20;1.20;;;16.80;99.90;;;;;;5146351;27;20068;-86
2023/07/03 00:24:39;;;;;;;1.13;1.13;;;16.80;99.90;;;;;;5154346;27;20621;-89
2023/07/03 00:27:05;;;;;;;1.20;1.20;;;16.80;99.90;;;;;;5131805;27;20078;-85
2023/07/03 00:29:33;;;;;;;0.98;0.98;;;16.70;99.90;;;;;;5141936;27;20130;-86
2023/07/03 00:31:59;;;;;;;1.10;1.10;;;16.70;99.90;;;;;;5142771;27;20047;-87
2023/07/03 00:34:26;;;;;;;0.95;0.95;;;16.60;99.90;;;;;;5134637;27;20053;-86
2023/07/03 00:36:51;;;;;;;1.00;1.00;;;16.60;99.90;;;;;;5146511;27;20050;-86
2023/07/03 00:39:17;;;;;;;1.08;1.08;;;16.50;99.90;;;;;;5150738;27;20045;-87
2023/07/03 00:41:43;;;;;;;1.10;1.10;;;16.50;99.90;;;;;;5156682;27;20479;-88
2023/07/03 00:44:11;;;;;;;1.27;1.27;;;16.40;99.90;;;;;;5152862;27;20042;-88
2023/07/03 00:46:39;;;;;;;1.77;1.67;;;16.40;99.90;;;;;;5128594;27;20034;-85
2023/07/03 00:49:05;;;;;;;1.70;1.60;;;16.40;99.90;;;;;;5156282;27;20058;-85
2023/07/03 00:51:31;;;;;;;1.70;1.60;;;16.40;99.90;;;;;;5148592;27;20046;-87
2023/07/03 00:53:57;;;;;;;1.90;1.80;;;16.30;99.90;;;;;;5149094;27;20055;-86
2023/07/03 00:56:22;;;;;;;2.00;1.90;;;16.30;99.90;;;;;;5145754;27;20538;-87
2023/07/03 00:58:48;;;;;;;2.00;1.90;;;16.20;99.90;;;;;;5144361;27;20081;-88
2023/07/03 01:01:34;;;;;;;2.15;2.05;;;16.30;99.90;;;;;;5132059;27;20034;-85
2023/07/03 01:04:08;;;;;;;2.00;1.90;;;16.20;99.90;;;;;;5153735;27;20046;-87
2023/07/03 01:06:44;;;;;;;2.17;2.08;;;16.30;99.90;;;;;;5151234;27;20042;-87
2023/07/03 01:09:15;;;;;;;2.00;1.90;;;16.30;99.90;;;;;;5129791;27;20042;-85
2023/07/03 01:11:42;;;;;;;2.70;2.55;;;16.30;99.90;;;;;;5153282;27;20050;-85
2023/07/03 01:14:10;;;;;;;2.70;2.55;;;16.30;99.90;;;;;;5158768;27;20034;-85
2023/07/03 01:16:37;;;;;;;2.63;2.50;;;16.30;99.90;;;;;;5149056;27;20046;-85
2023/07/03 01:19:08;;;;;;;2.78;2.60;;;16.30;99.90;;;;;;5136601;27;20046;-85
2023/07/03 01:21:58;;;;;;;2.80;2.63;;;16.30;99.90;;;;;;5154078;27;20045;-94
2023/07/03 01:24:42;;;;;;;2.83;2.63;;;16.30;99.90;;;;;;5153726;27;20547;-86
2023/07/03 01:27:13;;;;;;;3.10;2.90;;;16.30;99.90;;;;;;5132235;27;20045;-90
2023/07/03 01:29:40;;;;;;;2.85;2.67;;;16.30;99.90;;;;;;5146610;27;20062;-85
2023/07/03 01:32:09;;;;;;;3.17;2.97;;;16.30;99.90;;;;;;5151282;27;20155;-90
2023/07/03 01:34:38;;;;;;;2.80;2.63;;;16.30;99.90;;;;;;5132091;27;20137;-90
2023/07/03 01:37:14;;;;;;;2.78;2.63;;;16.40;99.90;;;;;;5150571;27;20048;-93
2023/07/03 01:39:45;;;;;;;2.45;2.35;;;16.30;99.90;;;;;;5143186;27;20099;-87
2023/07/03 01:42:12;;;;;;;2.63;2.50;;;16.40;99.90;;;;;;5131062;27;20048;-87
2023/07/03 01:44:38;;;;;;;2.40;2.30;;;16.30;99.90;;;;;;5151528;27;20046;-84
2023/07/03 01:47:08;;;;;;;2.40;2.30;;;16.40;99.90;;;;;;5147738;27;20049;-89
2023/07/03 01:49:34;;;;;;;2.28;2.17;;;16.40;99.90;;;;;;5155633;27;20287;-89
2023/07/03 01:52:32;;;;;;;2.10;2.00;;;16.40;99.90;;;;;;5133450;27;20035;-91
2023/07/03 01:55:06;;;;;;;2.05;1.95;;;16.40;99.90;;;;;;5126254;27;20065;-88
2023/07/03 01:57:47;;;;;;;2.15;2.05;;;16.40;99.90;;;;;;5151127;27;20039;-89
2023/07/03 02:00:21;;;;;;;2.08;1.98;;;16.50;99.90;;;;;;5129020;27;20122;-91
2023/07/03 02:02:50;;;;;;;2.03;1.92;;;16.40;99.90;;;;;;5129489;27;20046;-91
2023/07/03 02:05:22;;;;;;;2.03;1.92;;;16.50;99.90;;;;;;5126941;27;20031;-89
2023/07/03 02:07:53;;;;;;;1.90;1.80;;;16.50;99.90;;;;;;5151359;27;20072;-86
2023/07/03 02:10:19;;;;;;;2.05;1.95;;;16.50;99.90;;;;;;5131459;27;20072;-86
2023/07/03 02:12:54;;;;;;;1.92;1.83;;;16.40;99.90;;;;;;5153107;27;20122;-91
2023/07/03 02:15:20;;;;;;;2.03;1.92;;;16.40;99.90;;;;;;5133686;27;20045;-90
2023/07/03 02:17:46;;;;;;;2.00;1.90;;;16.40;99.90;;;;;;5131532;27;20403;-86
2023/07/03 02:20:14;;;;;;;1.88;1.77;;;16.40;99.90;;;;;;5137527;27;20033;-85
2023/07/03 02:22:46;;;;;;;1.92;1.83;;;16.40;99.90;;;;;;5155495;27;20330;-89
2023/07/03 02:25:13;;;;;;;1.90;1.80;;;16.40;99.90;;;;;;5143433;27;20119;-90
2023/07/03 02:27:42;;;;;;;1.70;1.60;;;16.40;99.90;;;;;;5127589;27;20090;-90
2023/07/03 02:30:12;;;;;;;1.73;1.63;;;16.40;99.90;;;;;;5129947;27;20035;-93
2023/07/03 02:32:42;;;;;;;1.67;1.58;;;16.50;99.90;;;;;;5135086;27;20133;-88
2023/07/03 02:35:09;;;;;;;1.63;1.52;;;16.50;99.90;;;;;;5149835;27;20142;-87
2023/07/03 02:37:34;;;;;;;1.65;1.55;;;16.50;99.90;;;;;;5147775;27;20793;-89
2023/07/03 02:40:00;;;;;;;1.65;1.55;;;16.40;99.90;;;;;;5133634;27;20117;-87
2023/07/03 02:42:26;;;;;;;1.63;1.52;;;16.50;99.90;;;;;;5138170;27;20038;-89
2023/07/03 02:44:52;;;;;;;1.63;1.52;;;16.40;99.90;;;;;;5156632;27;20510;-91
2023/07/03 02:47:23;;;;;;;1.60;1.50;;;16.40;99.90;;;;;;5151709;27;20102;-92
2023/07/03 02:49:58;;;;;;;1.50;1.40;;;16.40;99.90;;;;;;5126829;27;20049;-95
2023/07/03 02:52:23;;;;;;;1.45;1.40;;;16.40;99.90;;;;;;5131213;27;20046;-96
2023/07/03 02:54:49;;;;;;;1.50;1.40;;;16.20;99.90;;;;;;5153640;27;20049;-93
2023/07/03 02:57:15;;;;;;;1.30;1.30;;;16.20;99.90;;;;;;5150226;27;20138;-89
2023/07/03 02:59:40;;;;;;;1.35;1.35;;;16.20;99.90;;;;;;5134162;27;20037;-88
2023/07/03 03:02:06;;;;;;;1.35;1.35;;;16.10;99.90;;;;;;5172972;27;20095;-85
2023/07/03 03:04:32;;;;;;;1.27;1.27;;;16.00;99.90;;;;;;5152148;27;20077;-86
2023/07/03 03:06:58;;;;;;;6.28;1.88;;;16.00;99.90;;;;;;5148103;27;20372;-87
2023/07/03 03:09:23;;;;;;;1.20;1.20;;;15.80;99.90;;;;;;5146235;27;20054;-86
2023/07/03 03:11:49;;;;;;;1.17;1.17;;;15.80;99.90;;;;;;5150682;27;20042;-89
2023/07/03 03:14:15;;;;;;;1.10;1.10;;;15.70;99.90;;;;;;5149202;27;20045;-86
2023/07/03 03:16:40;;;;;;;1.50;1.40;;;15.70;99.90;;;;;;5148018;27;20513;-86
2023/07/03 03:19:06;;;;;;;1.00;1.00;;;15.60;99.90;;;;;;5127939;27;20129;-89
2023/07/03 03:21:32;;;;;;;1.00;1.00;;;15.60;99.90;;;;;;5146742;27;20076;-85
2023/07/03 03:23:57;;;;;;;0.90;0.90;;;15.50;99.90;;;;;;5126634;27;20041;-86
2023/07/03 03:26:26;;;;;;;0.90;0.90;;;15.50;99.90;;;;;;5147887;27;20135;-93
2023/07/03 03:28:52;;;;;;;0.90;0.90;;;15.40;99.90;;;;;;5133937;27;20050;-86
2023/07/03 03:31:18;;;;;;;0.90;0.90;;;15.30;99.90;;;;;;5128285;27;20456;-88
2023/07/03 03:33:43;;;;;;;0.90;0.90;;;15.20;99.90;;;;;;5146008;27;20453;-84
2023/07/03 03:36:09;;;;;;;0.90;0.90;;;15.20;99.90;;;;;;5130724;27;20043;-83
2023/07/03 03:38:35;;;;;;;0.90;0.90;;;15.20;99.90;;;;;;5168069;27;20070;-87
2023/07/03 03:41:02;;;;;;;0.90;0.90;;;15.20;99.90;;;;;;5154872;27;20515;-86
2023/07/03 03:43:27;;;;;;;0.90;0.90;;;15.20;99.90;;;;;;5158488;27;20078;-89
2023/07/03 03:45:59;;;;;;;0.90;0.90;;;15.10;99.90;;;;;;5160933;27;20132;-86
2023/07/03 03:48:26;;;;;;;0.90;0.90;;;15.20;99.90;;;;;;5150341;27;20054;-87
2023/07/03 03:50:52;;;;;;;1.00;1.00;;;15.10;99.90;;;;;;5176424;27;20077;-86
2023/07/03 03:53:18;;;;;;;0.90;0.90;;;15.10;99.90;;;;;;5133730;27;20042;-86
2023/07/03 03:55:47;;;;;;;0.90;0.90;;;15.10;99.90;;;;;;5152770;27;20033;-88
2023/07/03 03:58:15;;;;;;;0.90;0.90;;;15.10;99.90;;;;;;5156725;27;20050;-85
2023/07/03 04:00:41;;;;;;;0.90;0.90;;;15.10;99.90;;;;;;5152397;27;20046;-87
2023/07/03 04:03:07;;;;;;;1.00;1.00;;;15.10;99.90;;;;;;5151815;27;20612;-85
2023/07/03 04:05:32;;;;;;;1.05;1.05;;;15.10;99.90;;;;;;5151683;27;20050;-89
2023/07/03 04:07:58;;;;;;;1.00;1.00;;;15.20;99.90;;;;;;5142304;27;20097;-86
2023/07/03 04:10:24;;;;;;;1.00;1.00;;;15.10;99.90;;;;;;5147474;27;20049;-86
2023/07/03 04:12:53;;;;;;;1.00;1.00;;;15.20;99.90;;;;;;5168538;27;20483;-86
2023/07/03 04:15:18;;;;;;;1.00;1.00;;;15.20;99.90;;;;;;5144806;27;20045;-88
2023/07/03 04:17:44;;;;;;;1.05;1.05;;;15.20;99.90;;;;;;5146043;27;20046;-82
2023/07/03 04:20:13;;;;;;;0.90;0.90;;;15.10;99.90;;;;;;5150062;27;20046;-86
2023/07/03 04:22:39;;;;;;;0.85;0.85;;;15.20;99.90;;;;;;5142684;27;20491;-85
2023/07/03 04:25:05;;;;;;;1.13;1.13;;;15.10;99.90;;;;;;5147047;27;20046;-87
2023/07/03 04:27:31;;;;;;;1.10;1.10;;;15.20;99.90;;;;;;5145951;27;20150;-90
2023/07/03 04:29:56;;;;;;;1.00;1.00;;;15.20;99.90;;;;;;5149712;27;20063;-86
2023/07/03 04:32:22;;;;;;;1.10;1.10;;;15.20;99.90;;;;;;5147389;27;20082;-88
2023/07/03 04:34:48;;;;;;;1.20;1.20;;;15.20;99.90;;;;;;5144643;27;20078;-90
2023/07/03 04:37:13;;;;;;;1.20;1.20;;;15.20;99.90;;;;;;5145933;27;20042;-91
2023/07/03 04:39:39;;;;;;;1.20;1.20;;;15.30;99.90;;;;;;5132764;27;20043;-86
2023/07/03 04:42:07;;;;;;;1.20;1.20;;;15.40;99.90;;;;;;5150733;27;20436;-87
2023/07/03 04:44:33;;;;;;;1.50;1.40;;;15.50;99.90;;;;;;5141546;27;20250;-86
2023/07/03 04:47:05;;;;;;;1.30;1.30;;;16.20;99.90;;;;;;5150645;27;20067;-85
2023/07/03 04:49:34;;;;;;;1.10;1.10;;;16.90;99.90;;;;;;5131546;27;20038;-87
2023/07/03 04:52:00;;;;;;;1.10;1.10;;;18.40;99.90;;;;;;5143394;27;20149;-87
2023/07/03 04:54:29;;;;;;;1.10;1.10;;;19.60;99.90;;;;;;5146631;27;20118;-86
2023/07/03 04:56:56;;;;;;;1.08;1.08;;;20.20;99.90;;;;;;5129764;27;20058;-85
2023/07/03 04:59:21;;;;;;;1.10;1.10;;;21.00;99.90;;;;;;5125782;27;20061;-88
2023/07/03 05:01:47;;;;;;;1.65;1.55;;;20.80;99.90;;;;;;5141472;27;20047;-86
2023/07/03 05:04:13;;;;;;;1.60;1.50;;;20.40;99.90;;;;;;5149008;27;20038;-86
2023/07/03 05:06:39;;;;;;;2.25;2.15;;;21.10;99.90;;;;;;5153145;27;20160;-89
2023/07/03 05:09:06;;;;;;;1.90;1.80;;;22.40;99.90;;;;;;5128506;27;20042;-90
2023/07/03 05:11:34;;;;;;;1.48;1.40;;;22.20;99.90;;;;;;5130620;27;20034;-88
2023/07/03 05:14:00;;;;;;;1.05;1.05;;;22.50;99.90;;;;;;5133880;27;20038;-90
2023/07/03 05:16:26;;;;;;;1.10;1.10;;;23.50;99.90;;;;;;5130741;27;20050;-90
2023/07/03 05:18:52;;;;;;;1.00;1.00;;;23.90;99.90;;;;;;5126338;27;20098;-91
2023/07/03 05:21:18;;;;;;;1.20;1.20;;;23.70;99.90;;;;;;5132068;27;20076;-95
2023/07/03 05:23:47;;;;;;;1.30;1.30;;;23.60;99.90;;;;;;5134980;27;20029;-95
2023/07/03 05:26:12;;;;;;;1.20;1.20;;;23.90;99.90;;;;;;5146384;27;20128;-85
2023/07/03 05:28:38;;;;;;;1.38;1.35;;;24.40;99.90;;;;;;5144737;27;20049;-88
2023/07/03 05:31:04;;;;;;;1.30;1.30;;;24.80;99.90;;;;;;5148548;27;20128;-93
2023/07/03 05:33:30;;;;;;;1.42;1.35;;;24.80;99.90;;;;;;5131390;27;20071;-87
2023/07/03 05:36:02;;;;;;;2.15;2.05;;;25.40;99.90;;;;;;5138363;27;20046;-94
2023/07/03 05:38:28;;;;;;;1.30;1.30;;;25.60;99.90;;;;;;5145264;27;20558;-92
2023/07/03 05:40:54;;;;;;;1.20;1.20;;;26.10;99.90;;;;;;5156155;27;20106;-89
2023/07/03 05:43:23;;;;;;;1.20;1.20;;;25.70;99.90;;;;;;5151753;27;20038;-92
2023/07/03 05:45:49;;;;;;;1.10;1.10;;;25.50;99.90;;;;;;5133911;27;20394;-90
2023/07/03 05:48:15;;;;;;;1.20;1.20;;;25.70;99.90;;;;;;5143280;27;20046;-90
2023/07/03 05:50:49;;;;;;;1.00;1.00;;;23.70;99.90;;;;;;5137037;27;20120;-94
2023/07/03 05:53:14;;;;;;;1.00;1.00;;;22.20;99.90;;;;;;5155111;27;20042;-90
2023/07/03 05:55:40;;;;;;;1.00;1.00;;;21.40;99.90;;;;;;5154001;27;20063;-87
2023/07/03 05:58:06;;;;;;;1.00;1.00;;;21.30;99.90;;;;;;5153020;27;20110;-87
2023/07/03 06:00:32;;;;;;;1.00;1.00;;;20.90;99.90;;;;;;5141961;27;20046;-93
2023/07/03 06:02:59;;;;;;;1.00;1.00;;;20.40;99.90;;;;;;5150330;27;20118;-89
2023/07/03 06:05:31;;;;;;;1.00;1.00;;;20.10;99.90;;;;;;5147517;27;20048;-93
2023/07/03 06:07:57;;;;;;;0.90;0.90;;;20.10;99.90;;;;;;5153417;27;20044;-89
2023/07/03 06:10:23;;;;;;;1.00;1.00;;;20.20;99.90;;;;;;5130350;27;20046;-93
2023/07/03 06:12:49;;;;;;;1.00;1.00;;;20.20;99.90;;;;;;5136298;27;20141;-91
2023/07/03 06:15:15;;;;;;;1.00;1.00;;;20.40;99.90;;;;;;5142261;27;20068;-88
2023/07/03 06:17:42;;;;;;;1.00;1.00;;;20.40;99.90;;;;;;5153664;27;20045;-89
2023/07/03 06:20:08;;;;;;;1.00;1.00;;;20.40;99.90;;;;;;5148474;27;20316;-93
2023/07/03 06:22:34;;;;;;;0.90;0.90;;;20.30;99.90;;;;;;5156415;27;20047;-89
2023/07/03 06:24:59;;;;;;;1.00;1.00;;;19.90;99.90;;;;;;5131837;27;20086;-86
2023/07/03 06:27:25;;;;;;;1.00;1.00;;;20.20;99.90;;;;;;5148032;27;20380;-88
2023/07/03 06:29:51;;;;;;;1.00;1.00;;;20.40;99.90;;;;;;5148786;27;20532;-86
2023/07/03 06:32:18;;;;;;;1.10;1.10;;;20.70;99.90;;;;;;5148422;27;20058;-90
2023/07/03 06:34:47;;;;;;;1.00;1.00;;;20.00;99.90;;;;;;5130351;27;20062;-94
2023/07/03 06:37:12;;;;;;;1.00;1.00;;;19.70;99.90;;;;;;5147185;27;20042;-88
2023/07/03 06:39:50;;;;;;;1.00;1.00;;;19.50;99.90;;;;;;5134125;27;20038;-95
2023/07/03 06:42:15;;;;;;;1.00;1.00;;;19.80;99.90;;;;;;5132750;27;20050;-90
2023/07/03 06:44:43;;;;;;;1.10;1.10;;;19.50;99.90;;;;;;5132992;27;20099;-88
2023/07/03 06:47:09;;;;;;;1.08;1.08;;;19.70;99.90;;;;;;5151222;27;20046;-89
2023/07/03 06:49:36;;;;;;;1.10;1.10;;;19.70;99.90;;;;;;5130237;27;20060;-84
2023/07/03 06:52:03;;;;;;;1.10;1.10;;;19.80;99.90;;;;;;5150854;27;20068;-91
2023/07/03 06:54:28;;;;;;;1.08;1.08;;;20.10;99.90;;;;;;5131637;27;20070;-86
2023/07/03 06:56:54;;;;;;;1.00;1.00;;;19.70;99.90;;;;;;5149307;27;20130;-84
2023/07/03 06:59:20;;;;;;;1.00;1.00;;;19.70;99.90;;;;;;5147194;27;20042;-83
2023/07/03 07:01:45;;;;;;;1.13;1.13;;;19.40;99.90;;;;;;5144876;27;20055;-90
2023/07/03 07:04:11;;;;;;;1.10;1.10;;;19.10;99.90;;;;;;5137608;27;20062;-91
2023/07/03 07:06:39;;;;;;;1.00;1.00;;;19.30;99.90;;;;;;5150885;27;20043;-87
2023/07/03 07:09:08;;;;;;;1.08;1.08;;;19.20;99.90;;;;;;5136409;27;20069;-90
2023/07/03 07:11:35;;;;;;;1.10;1.10;;;19.10;99.90;;;;;;5126248;27;20047;-85
2023/07/03 07:14:04;;;;;;;1.10;1.10;;;19.30;99.90;;;;;;5157207;27;20037;-88
2023/07/03 07:16:34;;;;;;;1.10;1.10;;;19.60;99.90;;;;;;5136843;27;20487;-93
2023/07/03 07:19:02;;;;;;;1.10;1.10;;;18.90;99.90;;;;;;5159566;27;20551;-89
2023/07/03 07:21:33;;;;;;;1.20;1.20;;;18.70;99.90;;;;;;5117530;27;20037;-88
2023/07/03 07:24:02;;;;;;;1.20;1.20;;;19.20;99.90;;;;;;5148744;27;20042;-83
2023/07/03 07:26:33;;;;;;;1.40;1.30;;;19.60;99.90;;;;;;5189331;27;20053;-87
2023/07/03 07:29:00;;;;;;;1.20;1.20;;;20.10;99.90;;;;;;5138902;27;20055;-84
2023/07/03 07:31:28;;;;;;;1.15;1.15;;;20.30;99.90;;;;;;5166826;27;20050;-86
2023/07/03 07:33:54;;;;;;;1.20;1.20;;;19.80;99.90;;;;;;5129227;27;20042;-90
2023/07/03 07:36:21;;;;;;;1.10;1.10;;;19.50;99.90;;;;;;5139265;27;20133;-89
2023/07/03 07:38:54;;;;;;;1.10;1.10;;;19.20;99.90;;;;;;5141921;27;20046;-87
2023/07/03 07:41:20;;;;;;;1.10;1.10;;;19.10;99.90;;;;;;5137283;27;20879;-88
2023/07/03 07:43:48;;;;;;;1.10;1.10;;;18.90;99.90;;;;;;5143695;27;20042;-91
2023/07/03 07:46:14;;;;;;;1.10;1.10;;;18.70;99.90;;;;;;5156819;27;20046;-89
2023/07/03 07:48:40;;;;;;;1.00;1.00;;;18.40;99.90;;;;;;5139668;27;20046;-85
2023/07/03 07:51:12;;;;;;;1.15;1.15;;;18.20;99.90;;;;;;5157653;27;20044;-88
2023/07/03 07:53:38;;;;;;;1.17;1.17;;;18.00;99.90;;;;;;5143771;27;20037;-90
2023/07/03 07:56:07;;;;;;;1.20;1.20;;;17.80;99.90;;;;;;5152535;27;20091;-91
2023/07/03 07:58:33;;;;;;;1.30;1.30;;;18.00;99.90;;;;;;5130211;27;20061;-88
2023/07/03 08:00:58;;;;;;;1.30;1.30;;;18.10;99.90;;;;;;5140149;27;20479;-88
2023/07/03 08:03:25;;;;;;;1.50;1.40;;;18.30;99.90;;;;;;5149393;27;20038;-92
2023/07/03 08:06:00;;;;;;;1.30;1.30;;;18.70;99.90;;;;;;5131388;27;20042;-88
2023/07/03 08:08:26;;;;;;;1.30;1.30;;;18.70;99.90;;;;;;5134225;27;20047;-90
2023/07/03 08:10:53;;;;;;;1.27;1.27;;;18.60;99.90;;;;;;5129655;27;20045;-90
2023/07/03 08:13:19;;;;;;;1.30;1.30;;;18.80;99.90;;;;;;5157528;27;20037;-87
2023/07/03 08:15:45;;;;;;;1.30;1.30;;;19.40;99.90;;;;;;5140108;27;20075;-87
2023/07/03 08:18:12;;;;;;;1.20;1.20;;;19.10;99.90;;;;;;5160157;27;20125;-89
2023/07/03 08:20:37;;;;;;;1.30;1.30;;;18.90;99.90;;;;;;5155543;27;20082;-85
2023/07/03 08:23:03;;;;;;;1.20;1.20;;;18.90;99.90;;;;;;5136041;27;20046;-90
2023/07/03 08:25:29;;;;;;;1.20;1.20;;;18.90;99.90;;;;;;5147113;27;20137;-85
2023/07/03 08:27:54;;;;;;;1.20;1.20;;;18.70;99.90;;;;;;5155104;27;20121;-87
2023/07/03 08:30:22;;;;;;;1.20;1.20;;;18.60;99.90;;;;;;5153358;27;20091;-86
2023/07/03 08:32:48;;;;;;;1.20;1.20;;;18.20;99.90;;;;;;5134033;27;20577;-88
2023/07/03 08:35:14;;;;;;;1.40;1.35;;;18.10;99.90;;;;;;5149369;27;20049;-85
2023/07/03 08:37:39;;;;;;;1.30;1.30;;;18.30;99.90;;;;;;5153394;27;20038;-85
2023/07/03 08:40:07;;;;;;;1.50;1.40;;;18.50;99.90;;;;;;5154602;27;20046;-87
2023/07/03 08:42:46;;;;;;;1.50;1.40;;;18.40;99.90;;;;;;5128218;27;20042;-95
2023/07/03 08:45:15;;;;;;;1.30;1.30;;;18.30;99.90;;;;;;5157617;27;20482;-82
2023/07/03 08:47:42;;;;;;;1.50;1.40;;;18.20;99.90;;;;;;5152217;27;20043;-87
2023/07/03 08:50:11;;;;;;;1.27;1.27;;;18.20;99.90;;;;;;5151386;27;21054;-89
2023/07/03 08:52:41;;;;;;;1.30;1.30;;;18.50;99.90;;;;;;5138451;27;20038;-87
2023/07/03 08:55:11;;;;;;;1.60;1.50;;;19.50;99.90;;;;;;5153592;27;20042;-88
2023/07/03 08:57:38;;;;;;;1.50;1.40;;;20.60;99.90;;;;;;5136121;27;20038;-84
2023/07/03 09:00:10;;;;;;;1.13;1.13;;;20.70;99.90;;;;;;5155669;27;20042;-86
2023/07/03 09:02:59;;;;;;;1.10;1.10;;;20.70;99.90;;;;;;5132337;27;20034;-92
2023/07/03 09:05:33;;;;;;;1.05;1.05;;;20.70;99.90;;;;;;5152649;27;20506;-91
2023/07/03 09:08:03;;;;;;;1.00;1.00;;;20.90;99.90;;;;;;5174626;27;20503;-91
2023/07/03 09:10:40;;;;;;;1.00;1.00;;;20.90;99.90;;;;;;5140313;27;20038;-86
2023/07/03 09:13:45;;;;;;;1.15;1.15;;;21.20;99.90;;;;;;5136918;27;20046;-91
2023/07/03 09:16:11;;;;;;;;;;;20.70;99.90;;;;;;5138900;27;20147;-86
2023/07/03 09:18:47;;;;;;;1.00;1.00;;;20.20;99.90;;;;;;5154170;27;19923;-88
2023/07/03 09:21:12;;;;;;;1.15;1.15;;;19.60;99.90;;;;;;5146216;27;20046;-90
2023/07/03 09:24:06;;;;;;;1.15;1.15;;;19.20;99.90;;;;;;5140971;27;20037;-89
2023/07/03 09:26:50;;;;;;;1.10;1.10;;;19.10;99.90;;;;;;5128828;27;20391;-86
2023/07/03 09:29:16;;;;;;;1.17;1.17;;;19.00;99.90;;;;;;5147956;27;20061;-87
2023/07/03 09:31:45;;;;;;;1.23;1.23;;;18.80;99.90;;;;;;5139987;27;20494;-92
2023/07/03 09:34:16;;;;;;;1.52;1.42;;;18.90;99.90;;;;;;5148097;27;20039;-93
2023/07/03 09:36:43;;;;;;;1.42;1.35;;;19.00;99.90;;;;;;5151843;27;20038;-89
2023/07/03 09:39:12;;;;;;;1.35;1.33;;;19.20;99.90;;;;;;5157256;27;20031;-88
2023/07/03 09:41:39;;;;;;;1.50;1.40;;;19.10;99.90;;;;;;5148444;27;20109;-91
2023/07/03 09:44:13;;;;;;;1.60;1.50;;;19.00;99.90;;;;;;5150914;27;20591;-88
2023/07/03 09:46:39;;;;;;;;;;;18.70;99.90;;;;;;5148459;27;20121;-88
2023/07/03 09:49:16;;;;;;;1.30;1.30;;;18.70;99.90;;;;;;5136386;27;19923;-90
2023/07/03 09:51:42;;;;;;;1.38;1.38;;;18.70;99.90;;;;;;5130591;27;20045;-88
2023/07/03 09:54:21;;;;;;;1.60;1.50;;;18.80;99.90;;;;;;5138719;27;20049;-87
2023/07/03 09:56:49;;;;;;;1.60;1.50;;;18.90;99.90;;;;;;5133189;27;20038;-87
2023/07/03 09:59:19;;;;;;;1.80;1.70;;;19.20;99.90;;;;;;5147528;27;20046;-89
2023/07/03 10:01:46;;;;;;;1.80;1.70;;;19.50;99.90;;;;;;5150629;27;20117;-89
2023/07/03 10:04:14;;;;;;;1.80;1.70;;;19.70;99.90;;;;;;5130734;27;20049;-91
2023/07/03 10:07:03;;;;;;;2.00;1.90;;;20.30;99.90;;;;;;5151618;27;20101;-89
2023/07/03 10:09:32;;;;;;;1.55;1.45;;;20.10;99.90;;;;;;5149127;27;20068;-87
2023/07/03 10:12:13;;;;;;;1.70;1.60;;;19.70;99.90;;;;;;5135299;27;20056;-88
2023/07/03 10:14:44;;;;;;;1.55;1.45;;;19.70;99.90;;;;;;5148599;27;20042;-89
2023/07/03 10:17:13;;;;;;;1.70;1.60;;;19.50;99.90;;;;;;5159146;27;20045;-86
2023/07/03 10:19:45;;;;;;;2.03;1.92;;;19.70;99.90;;;;;;5133423;27;20038;-87
2023/07/03 10:22:13;;;;;;;1.80;1.70;;;20.70;99.90;;;;;;5152415;27;20034;-87
2023/07/03 10:24:41;;;;;;;1.73;1.63;;;20.70;99.90;;;;;;5151073;27;20065;-85
2023/07/03 10:27:07;;;;;;;1.70;1.60;;;20.40;99.90;;;;;;5153432;27;20044;-86
2023/07/03 10:29:38;;;;;;;1.60;1.50;;;20.50;99.90;;;;;;5131623;27;20050;-85
2023/07/03 10:32:14;;;;;;;1.60;1.50;;;21.20;99.90;;;;;;5145868;27;20042;-88
2023/07/03 10:34:40;;;;;;;1.52;1.42;;;21.40;99.90;;;;;;5131382;27;20117;-87
2023/07/03 10:37:10;;;;;;;1.50;1.40;;;21.00;99.90;;;;;;5133842;27;20052;-91
2023/07/03 10:39:43;;;;;;;1.50;1.40;;;20.80;99.90;;;;;;5137860;27;20042;-88
2023/07/03 10:42:21;;;;;;;1.55;1.45;;;20.50;99.90;;;;;;5128589;27;20765;-88
2023/07/03 10:44:52;;;;;;;1.50;1.42;;;20.20;99.90;;;;;;5136345;27;20034;-84
2023/07/03 10:47:39;;;;;;;1.58;1.48;;;20.00;99.90;;;;;;5150945;27;20131;-90
2023/07/03 10:50:08;;;;;;;1.50;1.40;;;19.80;99.90;;;;;;5135356;27;20041;-87
2023/07/03 10:52:56;;;;;;;1.50;1.40;;;19.50;99.90;;;;;;5148321;27;20446;-87
2023/07/03 10:55:41;;;;;;;1.60;1.50;;;19.60;99.90;;;;;;5155500;27;20102;-85
2023/07/03 10:58:25;;;;;;;1.70;1.60;;;20.90;99.90;;;;;;5155519;27;20121;-89
2023/07/03 11:01:06;;;;;;;1.60;1.50;;;20.90;99.90;;;;;;5150837;27;20046;-85
2023/07/03 11:03:49;;;;;;;1.50;1.40;;;20.90;99.90;;;;;;5157607;27;20407;-85
2023/07/03 11:06:25;;;;;;;1.35;1.33;;;20.50;99.90;;;;;;5151506;27;20094;-91
2023/07/03 11:09:10;;;;;;;1.38;1.35;;;20.20;99.90;;;;;;5151054;27;20122;-88
2023/07/03 11:11:53;;;;;;;1.38;1.35;;;20.10;99.90;;;;;;5147535;27;20159;-83
2023/07/03 11:14:40;;;;;;;1.42;1.38;;;19.40;99.90;;;;;;5162168;27;20051;-83
2023/07/03 11:17:33;;;;;;;1.60;1.50;;;19.10;99.90;;;;;;5161775;27;20049;-89
2023/07/03 11:20:22;;;;;;;1.60;1.50;;;18.90;99.90;;;;;;5154552;27;20418;-89
2023/07/03 11:22:58;;;;;;;1.60;1.50;;;19.00;99.90;;;;;;5125841;27;20081;-87
2023/07/03 11:25:41;;;;;;;1.70;1.60;;;19.10;99.90;;;;;;5140604;27;20070;-88
2023/07/03 11:28:20;;;;;;;2.20;2.10;;;19.70;99.90;;;;;;5154918;27;20045;-89
2023/07/03 11:30:49;;;;;;;1.80;1.70;;;21.00;99.90;;;;;;5152512;27;20062;-85
2023/07/03 11:33:16;;;;;;;1.70;1.60;;;21.70;99.90;;;;;;5150297;27;20539;-85
2023/07/03 11:35:58;;;;;;;1.52;1.42;;;22.00;99.90;;;;;;5150302;27;20060;-87
2023/07/03 11:38:26;;;;;;;1.50;1.40;;;22.10;99.90;;;;;;5135989;27;20533;-86
2023/07/03 11:40:55;;;;;;;1.35;1.35;;;22.20;99.90;;;;;;5151576;27;20130;-87
2023/07/03 11:43:33;;;;;;;1.30;1.30;;;21.70;99.90;;;;;;5135004;27;20049;-87
2023/07/03 11:46:06;;;;;;;1.30;1.30;;;21.70;99.90;;;;;;5151098;27;20118;-89
2023/07/03 11:48:40;;;;;;;1.30;1.30;;;21.10;99.90;;;;;;5135990;27;20034;-88
2023/07/03 11:51:12;;;;;;;1.50;1.40;;;20.40;99.90;;;;;;5138240;27;20041;-86
2023/07/03 11:53:47;;;;;;;1.60;1.50;;;19.90;99.90;;;;;;5151791;27;20042;-89
2023/07/03 11:56:32;;;;;;;1.50;1.40;;;19.70;99.90;;;;;;5137399;27;20042;-90
2023/07/03 11:59:05;;;;;;;1.30;1.30;;;19.30;99.90;;;;;;5152772;27;20618;-88
2023/07/03 12:01:31;;;;;;;1.20;1.20;;;19.10;99.90;;;;;;5129564;27;20133;-91
2023/07/03 12:04:04;;;;;;;1.20;1.20;;;19.10;99.90;;;;;;5133763;27;20370;-91
2023/07/03 12:06:39;;;;;;;1.10;1.10;;;19.00;99.90;;;;;;5150368;27;20129;-88
2023/07/03 12:09:30;;;;;;;1.30;1.30;;;19.00;99.90;;;;;;5141579;27;20069;-86
2023/07/03 12:11:59;;;;;;;1.23;1.23;;;19.30;99.90;;;;;;5158072;27;20053;-89
2023/07/03 12:15:00;;;;;;;1.33;1.30;;;19.80;99.90;;;;;;5148487;27;20053;-88
2023/07/03 12:17:30;;;;;;;0.82;0.82;;;20.70;99.90;;;;;;5110079;27;20061;-88
2023/07/03 12:19:56;;;;;;;0.88;0.88;;;20.80;99.90;;;;;;5155839;27;20050;-91
2023/07/03 12:22:28;;;;;;;0.93;0.93;;;20.70;99.90;;;;;;5151771;27;20103;-89
2023/07/03 12:25:07;;;;;;;1.08;1.08;;;20.50;99.90;;;;;;5148849;27;20030;-90
2023/07/03 12:27:33;;;;;;;1.00;1.00;;;20.20;99.90;;;;;;5149325;27;20049;-87
2023/07/03 12:29:59;;;;;;;1.08;1.08;;;19.90;99.90;;;;;;5153119;27;20045;-93
2023/07/03 12:32:29;;;;;;;1.10;1.10;;;20.50;99.90;;;;;;5131747;27;20046;-86
2023/07/03 12:35:16;;;;;;;1.20;1.20;;;20.30;99.90;;;;;;5125463;27;20117;-86
2023/07/03 12:37:52;;;;;;;1.20;1.20;;;20.00;99.90;;;;;;5148910;27;20042;-88
2023/07/03 12:40:19;;;;;;;1.30;1.30;;;19.60;99.90;;;;;;5149662;27;20050;-89
2023/07/03 12:42:46;;;;;;;1.25;1.25;;;19.20;99.90;;;;;;5128940;27;20049;-88
2023/07/03 12:45:27;;;;;;;1.25;1.25;;;19.00;99.90;;;;;;5131568;27;20200;-84
2023/07/03 12:48:07;;;;;;;1.50;1.40;;;18.80;99.90;;;;;;5139614;27;20145;-87
2023/07/03 12:50:48;;;;;;;1.48;1.40;;;18.60;99.90;;;;;;5152770;27;20077;-86
2023/07/03 12:53:14;;;;;;;1.42;1.35;;;18.40;99.90;;;;;;5134564;27;20065;-85
2023/07/03 12:55:43;;;;;;;1.45;1.40;;;18.20;99.90;;;;;;5155341;27;20080;-88
2023/07/03 12:58:11;;;;;;;1.20;1.20;;;18.20;99.90;;;;;;5129729;27;20125;-85
2023/07/03 13:00:37;;;;;;;1.50;1.40;;;18.10;99.90;;;;;;5153135;27;20042;-88